createdAt,value
2024-03-24T00:00:39.213Z,93915.00
2024-03-24T00:01:39.266Z,93914.00
2024-03-24T00:02:39.310Z,93916.00
2024-03-24T00:03:39.345Z,93915.00
2024-03-24T00:04:39.865Z,93915.00
2024-03-24T00:05:39.442Z,93914.00
2024-03-24T00:06:39.466Z,93914.00
2024-03-24T00:07:39.520Z,93912.00
2024-03-24T00:08:39.548Z,93911.00
2024-03-24T00:09:39.583Z,93912.00
2024-03-24T00:10:39.615Z,93907.00
2024-03-24T00:11:39.646Z,93910.00
2024-03-24T00:12:39.702Z,93909.00
2024-03-24T00:13:39.695Z,93909.00
2024-03-24T00:14:39.728Z,93908.00
2024-03-24T00:15:39.771Z,93907.00
2024-03-24T00:16:39.818Z,93904.00
2024-03-24T00:17:39.849Z,93902.00
2024-03-24T00:18:39.925Z,93900.00
2024-03-24T00:19:39.962Z,93898.00
2024-03-24T00:20:39.985Z,93899.00
2024-03-24T00:21:40.030Z,93899.00
2024-03-24T00:22:40.065Z,93899.00
2024-03-24T00:23:40.102Z,93898.00
2024-03-24T00:24:40.131Z,93898.00
2024-03-24T00:25:40.181Z,93897.00
2024-03-24T00:26:40.243Z,93898.00
2024-03-24T00:27:40.288Z,93896.00
2024-03-24T00:28:40.352Z,93895.00
2024-03-24T00:29:40.407Z,93893.00
2024-03-24T00:30:40.455Z,93894.00
2024-03-24T00:31:40.520Z,93890.00
2024-03-24T00:32:40.568Z,93891.00
2024-03-24T00:33:40.668Z,93891.00
2024-03-24T00:34:40.670Z,93888.00
2024-03-24T00:35:40.715Z,93887.00
2024-03-24T00:36:40.747Z,93884.00
2024-03-24T00:37:40.792Z,93882.00
2024-03-24T00:38:40.833Z,93881.00
2024-03-24T00:39:43.365Z,93879.00
2024-03-24T00:40:40.888Z,93881.00
2024-03-24T00:41:40.908Z,93880.00
2024-03-24T00:42:40.890Z,93880.00
2024-03-24T00:43:40.889Z,93875.00
2024-03-24T00:44:40.907Z,93875.00
2024-03-24T00:45:40.896Z,93873.00
2024-03-24T00:46:40.897Z,93869.00
2024-03-24T00:47:40.897Z,93867.00
2024-03-24T00:48:40.900Z,93865.00
2024-03-24T00:49:40.900Z,93859.00
2024-03-24T00:50:40.908Z,93862.00
2024-03-24T00:51:40.919Z,93861.00
2024-03-24T00:52:40.906Z,93858.00
2024-03-24T00:53:40.905Z,93860.00
2024-03-24T00:54:40.919Z,93860.00
2024-03-24T00:55:40.916Z,93860.00
2024-03-24T00:56:40.913Z,93860.00
2024-03-24T00:57:40.904Z,93857.00
2024-03-24T00:58:40.907Z,93857.00
2024-03-24T00:59:40.904Z,93855.00
2024-03-24T01:00:40.912Z,93857.00
2024-03-24T01:01:40.926Z,93855.00
2024-03-24T01:02:40.957Z,93855.00
2024-03-24T01:03:40.918Z,93856.00
2024-03-24T01:04:40.927Z,93854.00
2024-03-24T01:05:40.918Z,93855.00
2024-03-24T01:06:40.925Z,93854.00
2024-03-24T01:07:40.914Z,93854.00
2024-03-24T01:08:40.964Z,93854.00
2024-03-24T01:09:40.998Z,93853.00
2024-03-24T01:10:41.044Z,93851.00
2024-03-24T01:11:41.058Z,93849.00
2024-03-24T01:12:41.093Z,93847.00
2024-03-24T01:13:41.114Z,93846.00
2024-03-24T01:14:41.164Z,93848.00
2024-03-24T01:15:41.192Z,93848.00
2024-03-24T01:16:41.220Z,93846.00
2024-03-24T01:17:41.275Z,93847.00
2024-03-24T01:18:41.311Z,93847.00
2024-03-24T01:19:41.359Z,93846.00
2024-03-24T01:20:41.393Z,93847.00
2024-03-24T01:21:41.441Z,93848.00
2024-03-24T01:22:41.494Z,93843.00
2024-03-24T01:23:41.521Z,93843.00
2024-03-24T01:24:41.545Z,93842.00
2024-03-24T01:25:41.570Z,93840.00
2024-03-24T01:26:41.614Z,93839.00
2024-03-24T01:27:41.685Z,93840.00
2024-03-24T01:28:41.675Z,93837.00
2024-03-24T01:29:41.712Z,93838.00
2024-03-24T01:30:41.768Z,93834.00
2024-03-24T01:31:41.802Z,93833.00
2024-03-24T01:32:41.852Z,93832.00
2024-03-24T01:33:41.905Z,93833.00
2024-03-24T01:34:41.951Z,93832.00
2024-03-24T01:35:41.994Z,93830.00
2024-03-24T01:36:42.053Z,93831.00
2024-03-24T01:37:42.095Z,93830.00
2024-03-24T01:38:42.148Z,93828.00
2024-03-24T01:39:42.190Z,93828.00
2024-03-24T01:40:42.227Z,93825.00
2024-03-24T01:41:42.249Z,93825.00
2024-03-24T01:42:42.276Z,93826.00
2024-03-24T01:43:42.296Z,93827.00
2024-03-24T01:44:42.349Z,93824.00
2024-03-24T01:45:42.388Z,93822.00
2024-03-24T01:46:42.423Z,93819.00
2024-03-24T01:47:42.454Z,93815.00
2024-03-24T01:48:42.500Z,93819.00
2024-03-24T01:49:42.542Z,93815.00
2024-03-24T01:50:42.542Z,93816.00
2024-03-24T01:51:42.573Z,93815.00
2024-03-24T01:52:42.611Z,93813.00
2024-03-24T01:53:42.643Z,93812.00
2024-03-24T01:54:42.746Z,93811.00
2024-03-24T01:55:42.739Z,93810.00
2024-03-24T01:56:42.758Z,93808.00
2024-03-24T01:57:42.786Z,93806.00
2024-03-24T01:58:42.795Z,93804.00
2024-03-24T01:59:42.821Z,93799.00
2024-03-24T02:00:42.865Z,93797.00
2024-03-24T02:01:42.892Z,93791.00
2024-03-24T02:02:42.953Z,93786.00
2024-03-24T02:03:42.977Z,93781.00
2024-03-24T02:04:42.996Z,93778.00
2024-03-24T02:05:43.041Z,93769.00
2024-03-24T02:06:43.130Z,93764.00
2024-03-24T02:07:43.118Z,93760.00
2024-03-24T02:08:43.157Z,93757.00
2024-03-24T02:09:43.190Z,93759.00
2024-03-24T02:10:43.262Z,93758.00
2024-03-24T02:11:43.285Z,93757.00
2024-03-24T02:12:43.338Z,93756.00
2024-03-24T02:13:43.399Z,93757.00
2024-03-24T02:14:43.457Z,93756.00
2024-03-24T02:15:43.519Z,93753.00
2024-03-24T02:16:43.548Z,93752.00
2024-03-24T02:17:43.585Z,93749.00
2024-03-24T02:18:44.659Z,93743.00
2024-03-24T02:19:43.648Z,93739.00
2024-03-24T02:20:43.646Z,93739.00
2024-03-24T02:21:43.633Z,93742.00
2024-03-24T02:22:43.630Z,93744.00
2024-03-24T02:23:43.641Z,93746.00
2024-03-24T02:24:43.655Z,93748.00
2024-03-24T02:25:43.651Z,93750.00
2024-03-24T02:26:43.684Z,93752.00
2024-03-24T02:27:43.637Z,93752.00
2024-03-24T02:28:43.664Z,93747.00
2024-03-24T02:29:43.657Z,93745.00
2024-03-24T02:30:43.648Z,93744.00
2024-03-24T02:31:43.648Z,93745.00
2024-03-24T02:32:43.656Z,93743.00
2024-03-24T02:33:43.669Z,93742.00
2024-03-24T02:34:43.652Z,93743.00
2024-03-24T02:35:43.645Z,93741.00
2024-03-24T02:36:43.650Z,93738.00
2024-03-24T02:37:43.672Z,93738.00
2024-03-24T02:38:43.685Z,93735.00
2024-03-24T02:39:43.649Z,93732.00
2024-03-24T02:40:45.197Z,93732.00
2024-03-24T02:41:43.662Z,93729.00
2024-03-24T02:42:43.667Z,93728.00
2024-03-24T02:43:43.662Z,93729.00
2024-03-24T02:44:43.662Z,93729.00
2024-03-24T02:45:43.657Z,93727.00
2024-03-24T02:46:43.689Z,93724.00
2024-03-24T02:47:43.688Z,93722.00
2024-03-24T02:48:43.686Z,93720.00
2024-03-24T02:49:43.667Z,93720.00
2024-03-24T02:50:43.699Z,93714.00
2024-03-24T02:51:43.677Z,93716.00
2024-03-24T02:52:43.662Z,93716.00
2024-03-24T02:53:43.671Z,93715.00
2024-03-24T02:54:43.669Z,93713.00
2024-03-24T02:55:43.674Z,93711.00
2024-03-24T02:56:43.681Z,93709.00
2024-03-24T02:57:43.675Z,93709.00
2024-03-24T02:58:43.674Z,93710.00
2024-03-24T02:59:43.713Z,93710.00
2024-03-24T03:00:43.678Z,93709.00
2024-03-24T03:01:43.691Z,93710.00
2024-03-24T03:02:43.689Z,93710.00
2024-03-24T03:03:43.753Z,93709.00
2024-03-24T03:04:43.691Z,93710.00
2024-03-24T03:05:43.686Z,93708.00
2024-03-24T03:06:43.678Z,93705.00
2024-03-24T03:07:43.676Z,93699.00
2024-03-24T03:08:43.679Z,93693.00
2024-03-24T03:09:43.679Z,93688.00
2024-03-24T03:10:43.692Z,93686.00
2024-03-24T03:11:43.685Z,93687.00
2024-03-24T03:12:43.688Z,93688.00
2024-03-24T03:13:43.693Z,93688.00
2024-03-24T03:14:43.698Z,93687.00
2024-03-24T03:15:43.694Z,93690.00
2024-03-24T03:16:43.694Z,93690.00
2024-03-24T03:17:43.710Z,93690.00
2024-03-24T03:18:43.700Z,93689.00
2024-03-24T03:19:43.719Z,93691.00
2024-03-24T03:20:43.701Z,93692.00
2024-03-24T03:21:43.718Z,93692.00
2024-03-24T03:22:43.703Z,93689.00
2024-03-24T03:23:43.697Z,93689.00
2024-03-24T03:24:43.695Z,93689.00
2024-03-24T03:25:43.710Z,93690.00
2024-03-24T03:26:43.714Z,93689.00
2024-03-24T03:27:43.709Z,93687.00
2024-03-24T03:28:43.701Z,93687.00
2024-03-24T03:29:43.705Z,93688.00
2024-03-24T03:30:43.711Z,93688.00
2024-03-24T03:31:43.711Z,93689.00
2024-03-24T03:32:43.720Z,93688.00
2024-03-24T03:33:43.714Z,93687.00
2024-03-24T03:34:43.721Z,93684.00
2024-03-24T03:35:43.720Z,93683.00
2024-03-24T03:36:43.728Z,93681.00
2024-03-24T03:37:43.776Z,93681.00
2024-03-24T03:38:43.722Z,93680.00
2024-03-24T03:39:43.756Z,93680.00
2024-03-24T03:40:43.714Z,93679.00
2024-03-24T03:41:43.720Z,93678.00
2024-03-24T03:42:43.727Z,93677.00
2024-03-24T03:43:43.715Z,93674.00
2024-03-24T03:44:43.736Z,93676.00
2024-03-24T03:45:43.722Z,93678.00
2024-03-24T03:46:43.724Z,93676.00
2024-03-24T03:47:43.715Z,93677.00
2024-03-24T03:48:43.716Z,93677.00
2024-03-24T03:49:43.720Z,93678.00
2024-03-24T03:50:43.716Z,93677.00
2024-03-24T03:51:43.728Z,93678.00
2024-03-24T03:52:43.734Z,93679.00
2024-03-24T03:53:43.734Z,93679.00
2024-03-24T03:54:43.736Z,93679.00
2024-03-24T03:55:43.756Z,93681.00
2024-03-24T03:56:43.829Z,93682.00
2024-03-24T03:57:43.821Z,93684.00
2024-03-24T03:58:43.843Z,93681.00
2024-03-24T03:59:43.867Z,93678.00
2024-03-24T04:00:43.866Z,93677.00
2024-03-24T04:01:43.914Z,93675.00
2024-03-24T04:02:43.895Z,93674.00
2024-03-24T04:03:43.940Z,93674.00
2024-03-24T04:04:43.958Z,93670.00
2024-03-24T04:05:43.979Z,93671.00
2024-03-24T04:06:44.033Z,93669.00
2024-03-24T04:07:44.046Z,93671.00
2024-03-24T04:08:44.032Z,93671.00
2024-03-24T04:09:44.051Z,93666.00
2024-03-24T04:10:44.118Z,93666.00
2024-03-24T04:11:44.198Z,93662.00
2024-03-24T04:12:44.205Z,93658.00
2024-03-24T04:13:44.258Z,93656.00
2024-03-24T04:14:44.246Z,93659.00
2024-03-24T04:15:44.276Z,93659.00
2024-03-24T04:16:44.283Z,93659.00
2024-03-24T04:17:44.305Z,93663.00
2024-03-24T04:18:44.318Z,93662.00
2024-03-24T04:19:44.329Z,93661.00
2024-03-24T04:20:44.381Z,93663.00
2024-03-24T04:21:44.428Z,93665.00
2024-03-24T04:22:44.471Z,93665.00
2024-03-24T04:23:44.506Z,93662.00
2024-03-24T04:24:44.555Z,93659.00
2024-03-24T04:25:44.569Z,93658.00
2024-03-24T04:26:44.615Z,93658.00
2024-03-24T04:27:44.658Z,93655.00
2024-03-24T04:28:44.683Z,93654.00
2024-03-24T04:29:44.720Z,93653.00
2024-03-24T04:30:44.716Z,93652.00
2024-03-24T04:31:44.742Z,93649.00
2024-03-24T04:32:44.778Z,93646.00
2024-03-24T04:33:44.813Z,93644.00
2024-03-24T04:34:44.852Z,93645.00
2024-03-24T04:35:44.879Z,93644.00
2024-03-24T04:36:44.930Z,93647.00
2024-03-24T04:37:44.973Z,93646.00
2024-03-24T04:38:44.960Z,93646.00
2024-03-24T04:39:44.985Z,93646.00
2024-03-24T04:40:45.015Z,93647.00
2024-03-24T04:41:45.031Z,93649.00
2024-03-24T04:42:45.074Z,93648.00
2024-03-24T04:43:52.354Z,93648.00
2024-03-24T04:44:52.356Z,93648.00
2024-03-24T04:45:52.361Z,93650.00
2024-03-24T04:46:52.382Z,93649.00
2024-03-24T04:47:52.363Z,93651.00
2024-03-24T04:48:52.365Z,93653.00
2024-03-24T04:49:52.366Z,93654.00
2024-03-24T04:50:52.363Z,93656.00
2024-03-24T04:51:52.367Z,93654.00
2024-03-24T04:52:52.359Z,93654.00
2024-03-24T04:53:52.369Z,93651.00
2024-03-24T04:54:52.367Z,93648.00
2024-03-24T04:55:52.371Z,93648.00
2024-03-24T04:56:52.378Z,93648.00
2024-03-24T04:57:52.381Z,93649.00
2024-03-24T04:58:52.381Z,93653.00
2024-03-24T04:59:52.376Z,93651.00
2024-03-24T05:00:52.386Z,93651.00
2024-03-24T05:01:52.395Z,93653.00
2024-03-24T05:02:52.404Z,93654.00
2024-03-24T05:03:52.397Z,93653.00
2024-03-24T05:04:52.382Z,93652.00
2024-03-24T05:05:52.388Z,93650.00
2024-03-24T05:06:52.386Z,93651.00
2024-03-24T05:07:52.393Z,93651.00
2024-03-24T05:08:52.394Z,93651.00
2024-03-24T05:09:52.393Z,93650.00
2024-03-24T05:10:52.393Z,93655.00
2024-03-24T05:11:52.410Z,93655.00
2024-03-24T05:12:52.402Z,93656.00
2024-03-24T05:13:52.405Z,93654.00
2024-03-24T05:14:52.392Z,93653.00
2024-03-24T05:15:52.399Z,93653.00
2024-03-24T05:16:52.403Z,93653.00
2024-03-24T05:17:52.423Z,93654.00
2024-03-24T05:18:52.401Z,93653.00
2024-03-24T05:19:52.402Z,93652.00
2024-03-24T05:20:52.405Z,93650.00
2024-03-24T05:21:52.439Z,93646.00
2024-03-24T05:22:52.453Z,93644.00
2024-03-24T05:23:52.447Z,93639.00
2024-03-24T05:24:52.480Z,93637.00
2024-03-24T05:25:52.487Z,93637.00
2024-03-24T05:26:52.528Z,93636.00
2024-03-24T05:27:52.525Z,93636.00
2024-03-24T05:28:55.877Z,93635.00
2024-03-24T05:29:52.556Z,93635.00
2024-03-24T05:30:52.567Z,93635.00
2024-03-24T05:31:52.565Z,93638.00
2024-03-24T05:32:52.553Z,93636.00
2024-03-24T05:33:52.565Z,93638.00
2024-03-24T05:34:52.577Z,93639.00
2024-03-24T05:35:52.570Z,93638.00
2024-03-24T05:36:52.563Z,93638.00
2024-03-24T05:37:52.564Z,93638.00
2024-03-24T05:38:52.584Z,93637.00
2024-03-24T05:39:52.604Z,93638.00
2024-03-24T05:40:52.581Z,93641.00
2024-03-24T05:41:52.579Z,93641.00
2024-03-24T05:42:52.578Z,93641.00
2024-03-24T05:43:52.680Z,93641.00
2024-03-24T05:44:52.574Z,93643.00
2024-03-24T05:45:52.576Z,93645.00
2024-03-24T05:46:52.604Z,93647.00
2024-03-24T05:47:52.580Z,93651.00
2024-03-24T05:48:52.581Z,93651.00
2024-03-24T05:49:52.625Z,93650.00
2024-03-24T05:50:52.599Z,93653.00
2024-03-24T05:51:52.583Z,93652.00
2024-03-24T05:52:52.587Z,93655.00
2024-03-24T05:53:52.588Z,93659.00
2024-03-24T05:54:52.592Z,93662.00
2024-03-24T05:55:52.582Z,93661.00
2024-03-24T05:56:52.594Z,93660.00
2024-03-24T05:57:52.592Z,93661.00
2024-03-24T05:58:52.591Z,93662.00
2024-03-24T05:59:52.607Z,93663.00
2024-03-24T06:00:52.595Z,93664.00
2024-03-24T06:01:52.604Z,93666.00
2024-03-24T06:02:52.591Z,93667.00
2024-03-24T06:03:52.610Z,93668.00
2024-03-24T06:04:52.610Z,93666.00
2024-03-24T06:05:52.593Z,93664.00
2024-03-24T06:06:52.611Z,93669.00
2024-03-24T06:07:52.595Z,93668.00
2024-03-24T06:08:52.594Z,93672.00
2024-03-24T06:09:52.632Z,93668.00
2024-03-24T06:10:52.630Z,93669.00
2024-03-24T06:11:52.604Z,93672.00
2024-03-24T06:12:52.597Z,93671.00
2024-03-24T06:13:52.601Z,93673.00
2024-03-24T06:14:52.592Z,93673.00
2024-03-24T06:15:52.610Z,93675.00
2024-03-24T06:16:52.609Z,93678.00
2024-03-24T06:17:52.620Z,93679.00
2024-03-24T06:18:52.593Z,93683.00
2024-03-24T06:19:52.608Z,93685.00
2024-03-24T06:20:52.600Z,93685.00
2024-03-24T06:21:52.604Z,93687.00
2024-03-24T06:22:52.630Z,93688.00
2024-03-24T06:23:52.608Z,93684.00
2024-03-24T06:24:52.631Z,93688.00
2024-03-24T06:25:52.616Z,93691.00
2024-03-24T06:26:52.619Z,93694.00
2024-03-24T06:27:52.610Z,93697.00
2024-03-24T06:28:52.613Z,93700.00
2024-03-24T06:29:52.633Z,93704.00
2024-03-24T06:30:52.625Z,93704.00
2024-03-24T06:31:52.622Z,93704.00
2024-03-24T06:32:52.615Z,93702.00
2024-03-24T06:33:52.615Z,93702.00
2024-03-24T06:34:52.629Z,93703.00
2024-03-24T06:35:52.617Z,93705.00
2024-03-24T06:36:52.632Z,93706.00
2024-03-24T06:37:52.628Z,93704.00
2024-03-24T06:38:52.622Z,93701.00
2024-03-24T06:39:52.623Z,93701.00
2024-03-24T06:40:52.633Z,93699.00
2024-03-24T06:41:52.695Z,93696.00
2024-03-24T06:42:52.734Z,93701.00
2024-03-24T06:43:52.760Z,93701.00
2024-03-24T06:44:52.807Z,93705.00
2024-03-24T06:45:53.105Z,93701.00
2024-03-24T06:46:52.895Z,93697.00
2024-03-24T06:47:52.900Z,93698.00
2024-03-24T06:48:52.913Z,93701.00
2024-03-24T06:49:52.949Z,93705.00
2024-03-24T06:50:52.983Z,93704.00
2024-03-24T06:51:53.004Z,93706.00
2024-03-24T06:52:53.031Z,93708.00
2024-03-24T06:53:53.041Z,93709.00
2024-03-24T06:54:53.074Z,93710.00
2024-03-24T06:55:53.114Z,93711.00
2024-03-24T06:56:53.158Z,93713.00
2024-03-24T06:57:53.176Z,93711.00
2024-03-24T06:58:53.194Z,93711.00
2024-03-24T06:59:53.227Z,93713.00
2024-03-24T07:00:53.264Z,93715.00
2024-03-24T07:01:53.282Z,93714.00
2024-03-24T07:02:53.304Z,93715.00
2024-03-24T07:03:53.316Z,93713.00
2024-03-24T07:04:53.348Z,93710.00
2024-03-24T07:05:53.355Z,93711.00
2024-03-24T07:06:53.395Z,93714.00
2024-03-24T07:07:53.397Z,93716.00
2024-03-24T07:08:53.427Z,93715.00
2024-03-24T07:09:53.486Z,93712.00
2024-03-24T07:10:53.455Z,93712.00
2024-03-24T07:11:53.480Z,93712.00
2024-03-24T07:12:53.493Z,93711.00
2024-03-24T07:13:53.510Z,93712.00
2024-03-24T07:14:53.525Z,93716.00
2024-03-24T07:15:53.903Z,93718.00
2024-03-24T07:16:53.582Z,93721.00
2024-03-24T07:17:53.589Z,93722.00
2024-03-24T07:18:53.619Z,93724.00
2024-03-24T07:19:53.662Z,93724.00
2024-03-24T07:20:53.667Z,93726.00
2024-03-24T07:21:53.688Z,93728.00
2024-03-24T07:22:53.728Z,93726.00
2024-03-24T07:23:53.734Z,93730.00
2024-03-24T07:24:53.749Z,93731.00
2024-03-24T07:25:53.764Z,93733.00
2024-03-24T07:26:53.794Z,93733.00
2024-03-24T07:27:53.842Z,93731.00
2024-03-24T07:28:53.902Z,93731.00
2024-03-24T07:29:53.945Z,93732.00
2024-03-24T07:30:54.011Z,93732.00
2024-03-24T07:31:54.072Z,93731.00
2024-03-24T07:32:54.042Z,93732.00
2024-03-24T07:33:54.062Z,93729.00
2024-03-24T07:34:54.086Z,93724.00
2024-03-24T07:35:54.106Z,93720.00
2024-03-24T07:36:54.177Z,93714.00
2024-03-24T07:37:54.206Z,93708.00
2024-03-24T07:38:54.229Z,93703.00
2024-03-24T07:39:54.275Z,93695.00
2024-03-24T07:40:54.298Z,93690.00
2024-03-24T07:41:54.335Z,93685.00
2024-03-24T07:42:54.362Z,93685.00
2024-03-24T07:43:54.381Z,93686.00
2024-03-24T07:44:54.425Z,93688.00
2024-03-24T07:45:54.461Z,93691.00
2024-03-24T07:46:54.485Z,93692.00
2024-03-24T07:47:54.508Z,93694.00
2024-03-24T07:48:54.554Z,93697.00
2024-03-24T07:49:54.611Z,93701.00
2024-03-24T07:50:54.632Z,93700.00
2024-03-24T07:51:54.738Z,93704.00
2024-03-24T07:52:57.745Z,93704.00
2024-03-24T07:53:54.736Z,93706.00
2024-03-24T07:54:54.735Z,93709.00
2024-03-24T07:55:54.735Z,93707.00
2024-03-24T07:56:54.746Z,93708.00
2024-03-24T07:57:54.762Z,93707.00
2024-03-24T07:58:54.739Z,93708.00
2024-03-24T07:59:54.745Z,93708.00
2024-03-24T08:00:54.765Z,93710.00
2024-03-24T08:01:54.751Z,93711.00
2024-03-24T08:02:54.756Z,93710.00
2024-03-24T08:03:54.747Z,93710.00
2024-03-24T08:04:54.745Z,93710.00
2024-03-24T08:05:54.746Z,93708.00
2024-03-24T08:06:54.751Z,93706.00
2024-03-24T08:07:56.493Z,93707.00
2024-03-24T08:08:54.749Z,93706.00
2024-03-24T08:09:54.750Z,93706.00
2024-03-24T08:10:54.773Z,93704.00
2024-03-24T08:11:54.761Z,93708.00
2024-03-24T08:12:54.754Z,93706.00
2024-03-24T08:13:54.759Z,93705.00
2024-03-24T08:14:54.762Z,93702.00
2024-03-24T08:15:54.766Z,93702.00
2024-03-24T08:16:54.780Z,93701.00
2024-03-24T08:17:54.772Z,93698.00
2024-03-24T08:18:54.772Z,93699.00
2024-03-24T08:19:54.791Z,93699.00
2024-03-24T08:20:57.795Z,93699.00
2024-03-24T08:21:54.795Z,93700.00
2024-03-24T08:22:54.784Z,93702.00
2024-03-24T08:23:54.774Z,93702.00
2024-03-24T08:24:54.776Z,93706.00
2024-03-24T08:25:54.777Z,93706.00
2024-03-24T08:26:54.839Z,93710.00
2024-03-24T08:27:54.790Z,93711.00
2024-03-24T08:28:54.784Z,93716.00
2024-03-24T08:29:54.786Z,93720.00
2024-03-24T08:30:54.784Z,93724.00
2024-03-24T08:31:54.817Z,93726.00
2024-03-24T08:32:54.789Z,93730.00
2024-03-24T08:33:54.796Z,93730.00
2024-03-24T08:34:54.787Z,93732.00
2024-03-24T08:35:54.797Z,93731.00
2024-03-24T08:36:54.797Z,93733.00
2024-03-24T08:37:54.791Z,93731.00
2024-03-24T08:38:54.798Z,93734.00
2024-03-24T08:39:54.804Z,93733.00
2024-03-24T08:40:54.819Z,93736.00
2024-03-24T08:41:54.804Z,93736.00
2024-03-24T08:42:54.803Z,93735.00
2024-03-24T08:43:54.807Z,93740.00
2024-03-24T08:44:54.809Z,93741.00
2024-03-24T08:45:54.815Z,93742.00
2024-03-24T08:46:54.848Z,93740.00
2024-03-24T08:47:54.813Z,93742.00
2024-03-24T08:48:54.815Z,93743.00
2024-03-24T08:49:54.816Z,93745.00
2024-03-24T08:50:54.834Z,93746.00
2024-03-24T08:51:54.820Z,93745.00
2024-03-24T08:52:54.816Z,93750.00
2024-03-24T08:53:54.818Z,93750.00
2024-03-24T08:54:54.816Z,93751.00
2024-03-24T08:55:55.871Z,93752.00
2024-03-24T08:56:54.823Z,93752.00
2024-03-24T08:57:54.826Z,93753.00
2024-03-24T08:58:54.830Z,93753.00
2024-03-24T08:59:54.830Z,93754.00
2024-03-24T09:00:54.840Z,93754.00
2024-03-24T09:01:54.833Z,93755.00
2024-03-24T09:02:54.845Z,93754.00
2024-03-24T09:03:54.836Z,93754.00
2024-03-24T09:04:54.832Z,93753.00
2024-03-24T09:05:54.828Z,93753.00
2024-03-24T09:06:54.844Z,93753.00
2024-03-24T09:07:54.846Z,93755.00
2024-03-24T09:08:54.836Z,93754.00
2024-03-24T09:09:54.835Z,93757.00
2024-03-24T09:10:54.837Z,93758.00
2024-03-24T09:11:54.835Z,93759.00
2024-03-24T09:12:54.842Z,93754.00
2024-03-24T09:13:54.840Z,93754.00
2024-03-24T09:14:54.841Z,93757.00
2024-03-24T09:15:54.843Z,93759.00
2024-03-24T09:16:54.854Z,93759.00
2024-03-24T09:17:54.848Z,93762.00
2024-03-24T09:18:54.862Z,93763.00
2024-03-24T09:19:54.854Z,93760.00
2024-03-24T09:20:54.851Z,93761.00
2024-03-24T09:21:54.847Z,93757.00
2024-03-24T09:22:54.885Z,93757.00
2024-03-24T09:23:56.235Z,93758.00
2024-03-24T09:24:54.857Z,93760.00
2024-03-24T09:25:54.858Z,93759.00
2024-03-24T09:26:54.874Z,93756.00
2024-03-24T09:27:54.862Z,93760.00
2024-03-24T09:28:54.866Z,93762.00
2024-03-24T09:29:54.860Z,93763.00
2024-03-24T09:30:54.870Z,93766.00
2024-03-24T09:31:54.908Z,93766.00
2024-03-24T09:32:54.958Z,93766.00
2024-03-24T09:33:54.988Z,93766.00
2024-03-24T09:34:58.863Z,93769.00
2024-03-24T09:35:56.031Z,93773.00
2024-03-24T09:36:55.036Z,93774.00
2024-03-24T09:37:55.038Z,93772.00
2024-03-24T09:38:55.040Z,93771.00
2024-03-24T09:39:55.038Z,93772.00
2024-03-24T09:40:55.035Z,93775.00
2024-03-24T09:41:55.056Z,93779.00
2024-03-24T09:42:55.046Z,93777.00
2024-03-24T09:43:55.038Z,93777.00
2024-03-24T09:44:55.032Z,93777.00
2024-03-24T09:45:55.044Z,93777.00
2024-03-24T09:46:55.042Z,93773.00
2024-03-24T09:47:55.060Z,93772.00
2024-03-24T09:48:55.089Z,93770.00
2024-03-24T09:49:55.129Z,93773.00
2024-03-24T09:50:55.186Z,93778.00
2024-03-24T09:51:55.211Z,93780.00
2024-03-24T09:52:55.272Z,93780.00
2024-03-24T09:53:55.305Z,93776.00
2024-03-24T09:54:55.352Z,93777.00
2024-03-24T09:55:55.407Z,93772.00
2024-03-24T09:56:56.104Z,93773.00
2024-03-24T09:58:06.793Z,93771.00
2024-03-24T09:58:56.510Z,93767.00
2024-03-24T09:59:55.521Z,93767.00
2024-03-24T10:00:55.514Z,93767.00
2024-03-24T10:01:55.519Z,93766.00
2024-03-24T10:02:55.527Z,93764.00
2024-03-24T10:03:55.510Z,93761.00
2024-03-24T10:04:55.518Z,93755.00
2024-03-24T10:05:55.600Z,93750.00
2024-03-24T10:06:55.518Z,93754.00
2024-03-24T10:07:55.526Z,93756.00
2024-03-24T10:08:55.520Z,93754.00
2024-03-24T10:09:55.527Z,93754.00
2024-03-24T10:10:55.530Z,93755.00
2024-03-24T10:11:55.522Z,93751.00
2024-03-24T10:12:55.526Z,93750.00
2024-03-24T10:13:55.549Z,93748.00
2024-03-24T10:14:55.582Z,93749.00
2024-03-24T10:15:55.608Z,93744.00
2024-03-24T10:16:55.644Z,93744.00
2024-03-24T10:17:55.671Z,93736.00
2024-03-24T10:18:55.691Z,93736.00
2024-03-24T10:19:55.715Z,93733.00
2024-03-24T10:20:55.776Z,93731.00
2024-03-24T10:21:55.810Z,93730.00
2024-03-24T10:22:55.860Z,93729.00
2024-03-24T10:23:55.887Z,93728.00
2024-03-24T10:24:55.919Z,93729.00
2024-03-24T10:25:55.943Z,93729.00
2024-03-24T10:26:55.967Z,93727.00
2024-03-24T10:27:55.991Z,93729.00
2024-03-24T10:28:56.018Z,93727.00
2024-03-24T10:29:56.015Z,93725.00
2024-03-24T10:30:56.030Z,93723.00
2024-03-24T10:31:56.083Z,93722.00
2024-03-24T10:32:56.099Z,93719.00
2024-03-24T10:33:56.159Z,93717.00
2024-03-24T10:34:56.174Z,93719.00
2024-03-24T10:35:56.207Z,93719.00
2024-03-24T10:36:56.265Z,93719.00
2024-03-24T10:37:56.307Z,93713.00
2024-03-24T10:38:56.339Z,93711.00
2024-03-24T10:39:56.336Z,93709.00
2024-03-24T10:40:56.368Z,93711.00
2024-03-24T10:41:56.401Z,93713.00
2024-03-24T10:42:56.455Z,93709.00
2024-03-24T10:43:56.452Z,93710.00
2024-03-24T10:44:56.509Z,93706.00
2024-03-24T10:45:56.543Z,93706.00
2024-03-24T10:46:56.554Z,93704.00
2024-03-24T10:47:56.572Z,93704.00
2024-03-24T10:48:56.617Z,93702.00
2024-03-24T10:49:56.642Z,93699.00
2024-03-24T10:50:56.678Z,93697.00
2024-03-24T10:51:56.700Z,93694.00
2024-03-24T10:52:58.732Z,93692.00
2024-03-24T10:53:56.760Z,93693.00
2024-03-24T10:54:56.786Z,93694.00
2024-03-24T10:55:56.812Z,93691.00
2024-03-24T10:56:56.849Z,93691.00
2024-03-24T10:57:56.869Z,93694.00
2024-03-24T10:58:56.878Z,93689.00
2024-03-24T10:59:56.930Z,93689.00
2024-03-24T11:00:56.968Z,93691.00
2024-03-24T11:01:56.990Z,93686.00
2024-03-24T11:02:57.014Z,93685.00
2024-03-24T11:03:57.039Z,93685.00
2024-03-24T11:04:57.066Z,93687.00
2024-03-24T11:05:57.080Z,93686.00
2024-03-24T11:06:57.139Z,93686.00
2024-03-24T11:07:57.186Z,93688.00
2024-03-24T11:08:57.226Z,93686.00
2024-03-24T11:09:57.260Z,93683.00
2024-03-24T11:10:57.313Z,93685.00
2024-03-24T11:11:57.323Z,93684.00
2024-03-24T11:12:57.369Z,93687.00
2024-03-24T11:13:57.394Z,93684.00
2024-03-24T11:14:57.459Z,93686.00
2024-03-24T11:15:57.494Z,93685.00
2024-03-24T11:16:57.534Z,93687.00
2024-03-24T11:17:57.580Z,93682.00
2024-03-24T11:18:57.617Z,93682.00
2024-03-24T11:19:57.649Z,93684.00
2024-03-24T11:20:57.684Z,93685.00
2024-03-24T11:21:57.749Z,93688.00
2024-03-24T11:22:57.767Z,93687.00
2024-03-24T11:23:57.798Z,93686.00
2024-03-24T11:24:57.826Z,93686.00
2024-03-24T11:25:57.897Z,93685.00
2024-03-24T11:26:57.917Z,93690.00
2024-03-24T11:27:57.964Z,93689.00
2024-03-24T11:28:58.012Z,93691.00
2024-03-24T11:29:58.071Z,93694.00
2024-03-24T11:30:58.099Z,93692.00
2024-03-24T11:31:58.148Z,93688.00
2024-03-24T11:32:58.208Z,93688.00
2024-03-24T11:33:58.244Z,93685.00
2024-03-24T11:34:58.303Z,93685.00
2024-03-24T11:35:58.321Z,93684.00
2024-03-24T11:36:58.364Z,93684.00
2024-03-24T11:37:58.383Z,93686.00
2024-03-24T11:38:58.375Z,93686.00
2024-03-24T11:39:58.410Z,93687.00
2024-03-24T11:40:58.462Z,93685.00
2024-03-24T11:41:58.504Z,93686.00
2024-03-24T11:42:58.567Z,93684.00
2024-03-24T11:43:58.610Z,93684.00
2024-03-24T11:44:58.660Z,93684.00